logo
Search for airport 
image banner adimage banner adimage banner ad
image banner ad

CA668 - Amherst (Ccq4)

Located in , Canada

ICAO - , IATA -

Data provided by Airmate  

General information

Coordinates: N45°48'49" W64°14'9"
Elevation is 100 feet MSL.
 
View others Airports in Nova Scotia

Operational data

Special qualification required
Current time UTC:
Current local time:
METAR: CYQM 230500Z 20006KT 15SM SKC M03/M09 A3014 RMK SLP213
TAF: TAF CYQM 230541Z 2306/2406 20007KT P6SM SKC BECMG 2313/2315 19017KT FM240000 17010KT P6SM FEW250 RMK NXT FCST BY 231200Z
View NOTAMs / SUP AIP / TFR affecting this airport [VIEW]
Communications frequencies: [VIEW]

Runways:

Airport contact information

Address: Canada

Satellite view of CA668